createdAt,value
2018-07-07T00:01:24.655Z,49.28
2018-07-07T00:03:53.703Z,49.17
2018-07-07T00:06:22.707Z,49.60
2018-07-07T00:08:51.369Z,49.82
2018-07-07T00:11:20.502Z,49.32
2018-07-07T00:13:49.193Z,49.16
2018-07-07T00:16:17.916Z,49.61
2018-07-07T00:18:46.976Z,50.25
2018-07-07T00:21:15.691Z,49.82
2018-07-07T00:23:44.375Z,50.34
2018-07-07T00:26:13.829Z,50.49
2018-07-07T00:28:43.555Z,49.85
2018-07-07T00:31:12.965Z,50.80
2018-07-07T00:33:42.423Z,50.89
2018-07-07T00:36:11.810Z,50.08
2018-07-07T00:38:41.232Z,51.10
2018-07-07T00:41:10.674Z,50.58
2018-07-07T00:43:39.669Z,50.64
2018-07-07T00:46:08.958Z,50.59
2018-07-07T00:48:38.560Z,50.56
2018-07-07T00:51:08.240Z,51.10
2018-07-07T00:53:37.718Z,51.27
2018-07-07T00:56:07.529Z,51.41
2018-07-07T00:58:36.647Z,51.12
2018-07-07T01:01:05.926Z,50.61
2018-07-07T01:03:35.585Z,50.58
2018-07-07T01:06:06.006Z,50.48
2018-07-07T01:08:35.337Z,51.17
2018-07-07T01:11:04.611Z,50.58
2018-07-07T01:13:33.980Z,50.71
2018-07-07T01:16:04.591Z,50.37
2018-07-07T01:18:35.239Z,50.49
2018-07-07T01:21:04.582Z,50.97
2018-07-07T01:23:33.964Z,50.45
2018-07-07T01:26:04.244Z,50.85
2018-07-07T01:28:33.486Z,51.09
2018-07-07T01:31:02.537Z,50.20
2018-07-07T01:33:32.084Z,50.75
2018-07-07T01:36:01.010Z,50.42
2018-07-07T01:38:29.991Z,51.02
2018-07-07T01:40:59.781Z,51.08
2018-07-07T01:43:29.124Z,50.70
2018-07-07T01:45:58.558Z,50.68
2018-07-07T01:48:28.258Z,50.39
2018-07-07T01:50:57.224Z,50.42
2018-07-07T01:53:26.296Z,50.89
2018-07-07T01:55:55.896Z,50.91
2018-07-07T01:58:25.073Z,50.76
2018-07-07T02:00:54.519Z,50.78
2018-07-07T02:03:24.505Z,50.61
2018-07-07T02:05:53.844Z,50.81
2018-07-07T02:08:23.103Z,50.91
2018-07-07T02:10:52.761Z,50.96
2018-07-07T02:13:22.074Z,51.11
2018-07-07T02:15:51.469Z,50.94
2018-07-07T02:18:21.101Z,51.22
2018-07-07T02:20:50.319Z,51.40
2018-07-07T02:23:19.447Z,51.22
2018-07-07T02:25:49.024Z,50.79
2018-07-07T02:28:18.427Z,51.48
2018-07-07T02:30:47.676Z,50.98
2018-07-07T02:33:17.363Z,50.87
2018-07-07T02:35:46.688Z,51.78
2018-07-07T02:38:15.676Z,51.74
2018-07-07T02:40:44.869Z,52.29
2018-07-07T02:43:14.146Z,51.94
2018-07-07T02:45:43.476Z,52.48
2018-07-07T02:48:13.035Z,52.88
2018-07-07T02:50:42.134Z,52.08
2018-07-07T02:53:11.369Z,52.81
2018-07-07T02:55:41.131Z,53.27
2018-07-07T02:58:10.425Z,53.43
2018-07-07T03:00:39.373Z,53.70
2018-07-07T03:03:08.452Z,54.00
2018-07-07T03:05:37.640Z,53.79
2018-07-07T03:08:07.063Z,54.25
2018-07-07T03:10:36.474Z,54.32
2018-07-07T03:13:05.727Z,54.59
2018-07-07T03:15:34.910Z,53.99
2018-07-07T03:18:04.827Z,54.42
2018-07-07T03:20:34.555Z,53.47
2018-07-07T03:23:03.539Z,53.34
2018-07-07T03:25:32.641Z,53.22
2018-07-07T03:28:02.800Z,53.05
2018-07-07T03:30:32.266Z,53.84
2018-07-07T03:33:01.553Z,53.80
2018-07-07T03:35:31.256Z,54.22
2018-07-07T03:38:00.327Z,54.27
2018-07-07T03:40:29.439Z,54.21
2018-07-07T03:42:59.192Z,53.65
2018-07-07T03:45:28.643Z,53.82
2018-07-07T03:47:57.962Z,53.87
2018-07-07T03:50:27.338Z,54.28
2018-07-07T03:52:56.730Z,55.48
2018-07-07T03:55:26.077Z,55.25
2018-07-07T03:57:55.530Z,55.52
2018-07-07T04:00:24.522Z,55.83
2018-07-07T04:02:53.900Z,55.67
2018-07-07T04:05:23.253Z,55.75
2018-07-07T04:07:52.364Z,55.65
2018-07-07T04:10:21.683Z,55.71
2018-07-07T04:12:51.556Z,55.39
2018-07-07T04:15:20.777Z,55.57
2018-07-07T04:17:50.419Z,55.58
2018-07-07T04:20:20.053Z,55.76
2018-07-07T04:22:49.015Z,55.74
2018-07-07T04:25:18.077Z,54.91
2018-07-07T04:27:47.564Z,54.89
2018-07-07T04:30:16.532Z,55.42
2018-07-07T04:32:45.838Z,55.17
2018-07-07T04:35:15.315Z,54.91
2018-07-07T04:37:44.809Z,54.94
2018-07-07T04:40:14.218Z,55.24
2018-07-07T04:42:44.374Z,54.46
2018-07-07T04:45:13.741Z,54.96
2018-07-07T04:47:43.084Z,54.74
2018-07-07T04:50:12.464Z,54.47
2018-07-07T04:52:42.129Z,54.43
2018-07-07T04:55:11.413Z,54.53
2018-07-07T04:57:40.926Z,54.35
2018-07-07T05:00:10.098Z,54.33
2018-07-07T05:02:39.259Z,54.52
2018-07-07T05:05:08.841Z,53.55
2018-07-07T05:07:38.191Z,53.64
2018-07-07T05:10:07.291Z,53.75
2018-07-07T05:12:36.798Z,53.95
2018-07-07T05:15:06.137Z,53.10
2018-07-07T05:17:35.359Z,53.45
2018-07-07T05:20:05.591Z,53.02
2018-07-07T05:22:34.784Z,52.30
2018-07-07T05:25:04.414Z,52.31
2018-07-07T05:27:34.155Z,51.89
2018-07-07T05:30:03.745Z,52.71
2018-07-07T05:32:33.075Z,52.48
2018-07-07T05:35:02.840Z,52.38
2018-07-07T05:37:32.143Z,51.72
2018-07-07T05:40:01.743Z,51.18
2018-07-07T05:42:31.178Z,50.48
2018-07-07T05:45:00.554Z,50.71
2018-07-07T05:47:29.836Z,50.40
2018-07-07T05:49:59.805Z,50.16
2018-07-07T05:52:29.133Z,50.07
2018-07-07T05:54:58.176Z,49.58
2018-07-07T05:57:27.822Z,49.72
2018-07-07T05:59:57.007Z,48.78
2018-07-07T06:02:29.354Z,48.79
2018-07-07T06:04:59.205Z,48.67
2018-07-07T06:07:28.337Z,49.17
2018-07-07T06:09:57.757Z,49.21
2018-07-07T06:12:28.051Z,49.06
2018-07-07T06:14:57.510Z,48.50
2018-07-07T06:17:26.740Z,48.34
2018-07-07T06:19:56.406Z,47.48
2018-07-07T06:22:25.838Z,47.28
2018-07-07T06:24:54.824Z,47.34
2018-07-07T06:29:46.966Z,47.37
2018-07-07T06:32:16.461Z,47.32
2018-07-07T06:34:45.948Z,46.31
2018-07-07T06:37:15.123Z,45.97
2018-07-07T06:39:44.090Z,46.30
2018-07-07T06:42:13.813Z,45.70
2018-07-07T06:44:43.077Z,45.88
2018-07-07T06:47:12.405Z,45.94
2018-07-07T06:49:42.238Z,45.10
2018-07-07T06:52:11.218Z,44.76
2018-07-07T06:54:40.254Z,44.72
2018-07-07T06:57:10.063Z,44.72
2018-07-07T06:59:39.172Z,45.50
2018-07-07T07:02:08.273Z,45.61
2018-07-07T07:04:37.770Z,44.82
2018-07-07T07:07:06.922Z,44.99
2018-07-07T07:09:36.208Z,44.97
2018-07-07T07:12:07.002Z,44.63
2018-07-07T07:14:39.267Z,45.43
2018-07-07T07:17:11.031Z,44.91
2018-07-07T07:19:40.561Z,44.87
2018-07-07T07:23:11.957Z,43.76
2018-07-07T07:25:41.789Z,44.68
2018-07-07T07:28:10.814Z,43.57
2018-07-07T07:30:39.943Z,43.93
2018-07-07T07:33:09.783Z,43.62
2018-07-07T07:38:03.920Z,43.55
2018-07-07T07:40:33.893Z,43.30
2018-07-07T07:43:03.265Z,43.71
2018-07-07T07:45:32.315Z,43.40
2018-07-07T07:48:03.960Z,42.64
2018-07-07T07:50:36.053Z,43.26
2018-07-07T07:53:05.158Z,42.72
2018-07-07T07:55:34.127Z,41.85
2018-07-07T07:58:04.095Z,42.59
2018-07-07T08:00:33.221Z,42.55
2018-07-07T08:03:01.961Z,42.43
2018-07-07T08:05:30.674Z,41.56
2018-07-07T08:07:59.908Z,41.63
2018-07-07T08:10:28.624Z,40.53
2018-07-07T08:12:57.312Z,41.23
2018-07-07T08:15:26.333Z,40.64
2018-07-07T08:17:55.025Z,40.53
2018-07-07T08:20:23.737Z,40.98
2018-07-07T08:22:52.767Z,41.07
2018-07-07T08:25:21.483Z,40.58
2018-07-07T08:27:50.203Z,41.39
2018-07-07T08:30:19.476Z,41.39
2018-07-07T08:32:48.168Z,41.35
2018-07-07T08:35:16.962Z,41.21
2018-07-07T08:37:46.406Z,41.64
2018-07-07T08:40:15.133Z,40.94
2018-07-07T08:42:44.721Z,41.24
2018-07-07T08:45:13.940Z,42.32
2018-07-07T08:47:42.712Z,41.97
2018-07-07T08:50:11.397Z,42.03
2018-07-07T08:52:40.608Z,42.34
2018-07-07T08:55:09.404Z,42.62
2018-07-07T08:57:38.151Z,42.17
2018-07-07T09:00:07.767Z,43.07
2018-07-07T09:02:36.427Z,43.17
2018-07-07T09:05:05.792Z,42.42
2018-07-07T09:07:35.002Z,42.86
2018-07-07T09:10:04.446Z,42.25
2018-07-07T09:12:33.120Z,42.93
2018-07-07T09:15:01.866Z,42.08
2018-07-07T09:17:30.613Z,42.25
2018-07-07T09:19:59.308Z,42.00
2018-07-07T09:22:27.964Z,41.48
2018-07-07T09:24:56.849Z,42.28
2018-07-07T09:27:26.559Z,41.18
2018-07-07T09:29:55.327Z,41.01
2018-07-07T09:32:23.996Z,40.94
2018-07-07T09:34:53.085Z,40.38
2018-07-07T09:37:21.852Z,40.29
2018-07-07T09:39:51.773Z,38.75
2018-07-07T09:42:20.550Z,40.12
2018-07-07T09:44:49.278Z,39.43
2018-07-07T09:47:18.038Z,39.19
2018-07-07T09:49:47.249Z,38.82
2018-07-07T09:52:16.033Z,39.69
2018-07-07T09:54:44.914Z,38.94
2018-07-07T09:57:14.149Z,38.80
2018-07-07T09:59:42.852Z,37.69
2018-07-07T10:02:11.664Z,38.62
2018-07-07T10:04:40.848Z,38.40
2018-07-07T10:07:09.604Z,38.09
2018-07-07T10:09:38.360Z,37.48
2018-07-07T10:12:07.454Z,36.57
2018-07-07T10:14:36.143Z,36.31
2018-07-07T10:17:04.911Z,35.63
2018-07-07T10:19:35.124Z,36.24
2018-07-07T10:22:04.472Z,35.96
2018-07-07T10:24:33.808Z,34.81
2018-07-07T10:27:03.386Z,34.25
2018-07-07T10:29:32.090Z,34.06
2018-07-07T10:32:00.888Z,34.09
2018-07-07T10:34:30.144Z,33.95
2018-07-07T10:36:59.013Z,34.19
2018-07-07T10:39:27.856Z,34.11
2018-07-07T10:41:56.956Z,33.38
2018-07-07T10:44:25.654Z,33.19
2018-07-07T10:46:54.359Z,32.93
2018-07-07T10:49:23.448Z,32.54
2018-07-07T10:51:52.123Z,32.21
2018-07-07T10:54:20.798Z,32.23
2018-07-07T10:56:50.053Z,32.94
2018-07-07T10:59:18.773Z,30.28
2018-07-07T11:01:47.506Z,30.09
2018-07-07T11:04:16.737Z,30.95
2018-07-07T11:06:45.451Z,30.86
2018-07-07T11:09:14.274Z,30.06
2018-07-07T11:11:43.363Z,30.06
2018-07-07T11:14:12.045Z,28.88
2018-07-07T11:16:40.732Z,28.21
2018-07-07T11:19:09.922Z,29.10
2018-07-07T11:21:38.977Z,28.63
2018-07-07T11:24:07.758Z,27.75
2018-07-07T11:26:36.724Z,27.92
2018-07-07T11:29:06.770Z,28.38
2018-07-07T11:31:35.731Z,27.72
2018-07-07T11:34:05.757Z,27.64
2018-07-07T11:36:34.615Z,27.41
2018-07-07T11:39:03.409Z,26.84
2018-07-07T11:41:32.518Z,26.43
2018-07-07T11:44:01.711Z,27.09
2018-07-07T11:46:30.412Z,27.75
2018-07-07T11:48:59.408Z,27.40
2018-07-07T11:51:28.067Z,27.13
2018-07-07T11:53:56.747Z,28.24
2018-07-07T11:56:26.279Z,28.09
2018-07-07T11:58:55.067Z,28.52
2018-07-07T12:01:23.883Z,26.54
2018-07-07T12:03:53.473Z,26.67
2018-07-07T12:06:22.180Z,26.63
2018-07-07T12:08:50.922Z,26.72
2018-07-07T12:11:20.138Z,25.92
2018-07-07T12:13:48.845Z,25.13
2018-07-07T12:16:17.595Z,25.65
2018-07-07T12:18:46.740Z,25.11
2018-07-07T12:21:15.452Z,27.22
2018-07-07T12:23:44.167Z,26.12
2018-07-07T12:26:13.359Z,26.23
2018-07-07T12:28:42.702Z,25.22
2018-07-07T12:31:11.378Z,25.67
2018-07-07T12:33:40.520Z,24.36
2018-07-07T12:36:09.253Z,23.95
2018-07-07T12:38:37.988Z,23.76
2018-07-07T12:41:07.185Z,23.83
2018-07-07T12:43:35.919Z,23.43
2018-07-07T12:46:05.347Z,22.95
2018-07-07T12:48:34.432Z,22.70
2018-07-07T12:51:03.256Z,23.11
2018-07-07T12:53:32.059Z,22.93
2018-07-07T12:56:01.172Z,22.21
2018-07-07T12:58:29.873Z,21.16
2018-07-07T13:00:58.563Z,21.39
2018-07-07T13:03:27.996Z,20.95
2018-07-07T13:05:56.821Z,20.62
2018-07-07T13:08:25.517Z,20.99
2018-07-07T13:10:54.724Z,20.76
2018-07-07T13:13:23.437Z,20.35
2018-07-07T13:15:52.142Z,19.59
2018-07-07T13:18:21.308Z,19.30
2018-07-07T13:20:50.022Z,17.50
2018-07-07T13:23:18.730Z,17.19
2018-07-07T13:25:48.850Z,17.55
2018-07-07T13:28:17.520Z,17.72
2018-07-07T13:30:46.270Z,18.20
2018-07-07T13:33:15.495Z,19.45
2018-07-07T13:35:44.210Z,19.92
2018-07-07T13:38:13.799Z,20.06
2018-07-07T13:40:43.076Z,19.92
2018-07-07T13:43:11.789Z,19.59
2018-07-07T13:45:40.525Z,19.95
2018-07-07T13:48:09.641Z,20.01
2018-07-07T13:50:38.393Z,20.09
2018-07-07T13:53:07.128Z,18.91
2018-07-07T13:55:35.901Z,17.90
2018-07-07T13:58:05.318Z,18.45
2018-07-07T14:00:35.271Z,19.36
2018-07-07T14:03:04.570Z,20.34
2018-07-07T14:05:33.490Z,21.18
2018-07-07T14:08:04.694Z,21.37
2018-07-07T14:10:33.544Z,22.33
2018-07-07T14:13:03.410Z,22.44
2018-07-07T14:15:34.143Z,23.47
2018-07-07T14:18:04.302Z,23.00
2018-07-07T14:20:33.372Z,22.21
2018-07-07T14:23:02.398Z,20.25
2018-07-07T14:25:31.536Z,20.43
2018-07-07T14:28:01.360Z,20.17
2018-07-07T14:30:30.455Z,18.62
2018-07-07T14:32:59.227Z,16.31
2018-07-07T14:35:31.930Z,15.02
2018-07-07T14:38:01.167Z,14.00
2018-07-07T14:40:33.049Z,13.34
2018-07-07T14:43:01.788Z,12.54
2018-07-07T14:45:33.233Z,11.96
2018-07-07T14:48:08.658Z,11.93
2018-07-07T14:50:37.302Z,11.57
2018-07-07T14:53:05.927Z,11.01
2018-07-07T14:55:34.467Z,10.75
2018-07-07T14:58:05.446Z,11.05
2018-07-07T15:00:35.592Z,11.58
2018-07-07T15:03:05.697Z,11.52
2018-07-07T15:05:34.929Z,11.94
2018-07-07T15:08:04.368Z,13.43
2018-07-07T15:10:33.065Z,14.06
2018-07-07T15:13:01.763Z,13.58
2018-07-07T15:15:30.636Z,12.80
2018-07-07T15:17:59.930Z,12.23
2018-07-07T15:20:28.735Z,12.34
2018-07-07T15:22:57.529Z,12.35
2018-07-07T15:25:29.684Z,11.74
2018-07-07T15:27:58.347Z,12.07
2018-07-07T15:30:28.886Z,11.89
2018-07-07T15:32:57.607Z,12.01
2018-07-07T15:35:26.184Z,11.84
2018-07-07T15:37:55.290Z,12.13
2018-07-07T15:40:26.469Z,12.42
2018-07-07T15:42:55.271Z,12.41
2018-07-07T15:45:24.291Z,12.96
2018-07-07T15:47:53.032Z,13.74
2018-07-07T15:50:21.943Z,14.88
2018-07-07T15:52:51.103Z,15.11
2018-07-07T15:55:19.690Z,15.76
2018-07-07T15:57:48.259Z,16.56
2018-07-07T16:00:17.399Z,16.97
2018-07-07T16:02:46.168Z,17.63
2018-07-07T16:05:14.765Z,17.86
2018-07-07T16:07:43.748Z,18.60
2018-07-07T16:10:12.262Z,18.49
2018-07-07T16:12:41.030Z,18.76
2018-07-07T16:15:11.377Z,18.95
2018-07-07T16:17:40.604Z,19.69
2018-07-07T16:20:09.155Z,19.80
2018-07-07T16:22:38.018Z,20.48
2018-07-07T16:25:06.600Z,21.04
2018-07-07T16:27:35.357Z,21.59
2018-07-07T16:30:04.935Z,21.07
2018-07-07T16:32:33.508Z,21.15
2018-07-07T16:35:02.067Z,22.25
2018-07-07T16:37:30.942Z,22.40
2018-07-07T16:39:59.505Z,22.13
2018-07-07T16:42:28.073Z,22.85
2018-07-07T16:47:32.927Z,23.04
2018-07-07T16:50:04.303Z,22.48
2018-07-07T16:52:33.197Z,22.68
2018-07-07T16:55:05.840Z,23.20
2018-07-07T16:57:34.465Z,22.89
2018-07-07T17:00:04.684Z,23.34
2018-07-07T17:02:33.263Z,23.74
2018-07-07T17:05:01.925Z,23.22
2018-07-07T17:07:30.984Z,23.59
2018-07-07T17:09:59.708Z,23.70
2018-07-07T17:12:28.315Z,24.34
2018-07-07T17:14:57.209Z,24.44
2018-07-07T17:17:30.751Z,25.12
2018-07-07T17:19:59.337Z,25.82
2018-07-07T17:22:28.642Z,25.83
2018-07-07T17:24:57.315Z,26.01
2018-07-07T17:27:26.079Z,26.18
2018-07-07T17:29:55.056Z,26.18
2018-07-07T17:32:23.744Z,26.24
2018-07-07T17:34:59.645Z,26.80
2018-07-07T17:37:29.249Z,25.88
2018-07-07T17:39:57.855Z,26.74
2018-07-07T17:42:27.058Z,27.02
2018-07-07T17:44:59.555Z,25.97
2018-07-07T17:47:36.564Z,26.32
2018-07-07T17:50:06.712Z,26.80
2018-07-07T17:52:38.124Z,27.05
2018-07-07T17:55:11.162Z,26.88
2018-07-07T17:57:40.178Z,26.77
2018-07-07T18:00:10.380Z,26.75
2018-07-07T18:02:39.013Z,26.97
2018-07-07T18:05:08.038Z,27.02
2018-07-07T18:07:36.611Z,26.70
2018-07-07T18:10:05.486Z,26.81
2018-07-07T18:12:34.589Z,27.09
2018-07-07T18:15:07.108Z,27.13
2018-07-07T18:17:35.638Z,27.54
2018-07-07T18:20:05.449Z,28.07
2018-07-07T18:22:34.058Z,27.77
2018-07-07T18:25:02.940Z,27.90
2018-07-07T18:27:31.967Z,28.09
2018-07-07T18:30:01.244Z,27.65
2018-07-07T18:32:29.963Z,28.17
2018-07-07T18:34:58.787Z,27.82
2018-07-07T18:37:27.392Z,28.01
2018-07-07T18:39:56.202Z,28.48
2018-07-07T18:42:24.760Z,29.18
2018-07-07T18:44:55.237Z,28.96
2018-07-07T18:47:24.051Z,28.95
2018-07-07T18:49:52.641Z,29.25
2018-07-07T18:52:21.167Z,29.65
2018-07-07T18:54:50.082Z,28.69
2018-07-07T18:57:18.800Z,29.05
2018-07-07T18:59:48.008Z,29.83
2018-07-07T19:02:17.010Z,30.30
2018-07-07T19:04:49.274Z,29.70
2018-07-07T19:07:17.819Z,30.63
2018-07-07T19:09:46.380Z,29.89
2018-07-07T19:12:14.928Z,30.13
2018-07-07T19:14:43.823Z,30.33
2018-07-07T19:17:12.685Z,29.89
2018-07-07T19:19:41.623Z,30.61
2018-07-07T19:22:15.630Z,30.92
2018-07-07T19:24:49.274Z,31.01
2018-07-07T19:27:18.620Z,30.60
2018-07-07T19:29:47.671Z,31.71
2018-07-07T19:32:21.390Z,30.83
2018-07-07T19:35:00.805Z,30.81
2018-07-07T19:37:30.641Z,30.75
2018-07-07T19:39:59.196Z,31.60
2018-07-07T19:42:27.708Z,30.70
2018-07-07T19:44:56.566Z,30.88
2018-07-07T19:47:25.085Z,31.24
2018-07-07T19:49:53.611Z,31.39
2018-07-07T19:52:23.020Z,31.69
2018-07-07T19:54:59.108Z,32.05
2018-07-07T19:57:27.748Z,31.37
2018-07-07T20:00:02.314Z,31.94
2018-07-07T20:02:33.421Z,31.24
2018-07-07T20:05:03.066Z,31.59
2018-07-07T20:07:31.683Z,31.62
2018-07-07T20:10:00.268Z,31.75
2018-07-07T20:12:36.170Z,32.45
2018-07-07T20:15:04.852Z,32.38
2018-07-07T20:17:44.877Z,32.59
2018-07-07T20:21:50.025Z,31.52
2018-07-07T20:24:21.862Z,32.40
2018-07-07T20:27:06.402Z,31.84
2018-07-07T20:29:35.670Z,31.94
2018-07-07T20:32:08.973Z,32.88
2018-07-07T20:34:37.687Z,32.84
2018-07-07T20:37:06.655Z,32.37
2018-07-07T20:39:39.798Z,32.26
2018-07-07T20:42:08.319Z,32.83
2018-07-07T20:44:37.198Z,33.20
2018-07-07T20:47:11.658Z,32.96
2018-07-07T20:49:40.219Z,33.06
2018-07-07T20:52:09.259Z,33.98
2018-07-07T20:54:37.823Z,33.27
2018-07-07T20:57:06.389Z,34.28
2018-07-07T20:59:35.514Z,34.22
2018-07-07T21:02:05.174Z,33.65
2018-07-07T21:04:34.883Z,33.76
2018-07-07T21:07:03.888Z,33.80
2018-07-07T21:09:38.983Z,34.56
2018-07-07T21:12:07.727Z,34.76
2018-07-07T21:14:36.680Z,34.86
2018-07-07T21:17:05.238Z,34.97
2018-07-07T21:19:33.810Z,34.33
2018-07-07T21:22:06.218Z,34.95
2018-07-07T21:24:34.733Z,34.64
2018-07-07T21:27:03.296Z,35.01
2018-07-07T21:29:32.944Z,34.93
2018-07-07T21:32:01.443Z,35.29
2018-07-07T21:34:30.024Z,36.13
2018-07-07T21:37:05.538Z,35.56
2018-07-07T21:39:34.096Z,35.86
2018-07-07T21:42:07.946Z,35.58
2018-07-07T21:44:36.926Z,36.43
2018-07-07T21:47:05.603Z,35.88
2018-07-07T21:49:34.232Z,36.92
2018-07-07T21:52:05.027Z,36.26
2018-07-07T21:54:33.567Z,37.05
2018-07-07T21:57:02.160Z,37.15
2018-07-07T21:59:31.048Z,36.42
2018-07-07T22:04:44.272Z,36.66
2018-07-07T22:07:17.955Z,37.58
2018-07-07T22:09:46.937Z,37.01
2018-07-07T22:12:15.525Z,37.38
2018-07-07T22:14:44.197Z,37.26
2018-07-07T22:17:16.651Z,37.38
2018-07-07T22:19:45.308Z,37.99
2018-07-07T22:22:14.379Z,37.73
2018-07-07T22:24:44.493Z,38.55
2018-07-07T22:27:14.306Z,38.35
2018-07-07T22:29:42.918Z,37.84
2018-07-07T22:32:17.142Z,37.88
2018-07-07T22:34:45.755Z,38.13
2018-07-07T22:37:14.403Z,38.87
2018-07-07T22:39:44.493Z,38.90
2018-07-07T22:42:20.311Z,38.26
2018-07-07T22:44:50.019Z,38.67
2018-07-07T22:47:18.595Z,39.24
2018-07-07T22:49:47.105Z,39.00
2018-07-07T22:52:17.835Z,38.91
2018-07-07T22:54:46.463Z,39.07
2018-07-07T22:57:15.071Z,40.09
2018-07-07T22:59:44.074Z,39.37
2018-07-07T23:02:13.186Z,39.91
2018-07-07T23:04:42.576Z,39.83
2018-07-07T23:07:12.388Z,40.01
2018-07-07T23:09:41.059Z,40.14
2018-07-07T23:12:09.613Z,40.68
2018-07-07T23:14:39.777Z,40.28
2018-07-07T23:17:08.327Z,40.49
2018-07-07T23:19:38.819Z,41.34
2018-07-07T23:22:08.286Z,40.90
2018-07-07T23:24:51.395Z,40.82
2018-07-07T23:27:20.379Z,41.66
2018-07-07T23:29:48.909Z,41.34
2018-07-07T23:32:17.440Z,41.44
2018-07-07T23:34:46.387Z,42.13
2018-07-07T23:37:15.034Z,42.05
2018-07-07T23:39:43.539Z,41.48
2018-07-07T23:42:12.449Z,42.22
2018-07-07T23:44:40.977Z,41.54
2018-07-07T23:47:10.016Z,41.91
2018-07-07T23:49:38.917Z,42.09
2018-07-07T23:52:07.532Z,41.29
2018-07-07T23:54:36.119Z,41.20
2018-07-07T23:57:08.824Z,42.23
2018-07-07T23:59:37.327Z,41.92
